sensor_id;sensor_type;location;lat;lon;timestamp;pressure;altitude;pressure_sealevel;temperature;humidity
48630;BME280;34426;52.180;4.462;2023-02-22T00:01:38;101657.31;;;6.89;86.32
48630;BME280;34426;52.180;4.462;2023-02-22T00:04:05;101659.25;;;6.89;85.78
48630;BME280;34426;52.180;4.462;2023-02-22T00:06:31;101659.66;;;6.92;85.58
48630;BME280;34426;52.180;4.462;2023-02-22T00:08:58;101659.88;;;6.91;85.25
48630;BME280;34426;52.180;4.462;2023-02-22T00:11:24;101665.06;;;6.81;84.38
48630;BME280;34426;52.180;4.462;2023-02-22T00:13:50;101660.81;;;6.78;85.16
48630;BME280;34426;52.180;4.462;2023-02-22T00:16:18;101649.50;;;6.73;85.92
48630;BME280;34426;52.180;4.462;2023-02-22T00:18:44;101646.94;;;6.72;85.47
48630;BME280;34426;52.180;4.462;2023-02-22T00:21:11;101629.25;;;6.59;85.79
48630;BME280;34426;52.180;4.462;2023-02-22T00:23:40;101633.75;;;6.60;86.83
48630;BME280;34426;52.180;4.462;2023-02-22T00:26:07;101638.47;;;6.53;86.31
48630;BME280;34426;52.180;4.462;2023-02-22T00:28:33;101640.38;;;6.59;86.25
48630;BME280;34426;52.180;4.462;2023-02-22T00:30:58;101634.16;;;6.64;86.05
48630;BME280;34426;52.180;4.462;2023-02-22T00:33:24;101636.16;;;6.50;86.05
48630;BME280;34426;52.180;4.462;2023-02-22T00:35:49;101631.41;;;6.57;86.16
48630;BME280;34426;52.180;4.462;2023-02-22T00:38:17;101634.19;;;6.57;86.01
48630;BME280;34426;52.180;4.462;2023-02-22T00:40:43;101631.19;;;6.59;85.51
48630;BME280;34426;52.180;4.462;2023-02-22T00:43:10;101626.56;;;6.46;85.46
48630;BME280;34426;52.180;4.462;2023-02-22T00:45:36;101617.59;;;6.44;86.10
48630;BME280;34426;52.180;4.462;2023-02-22T00:48:03;101616.78;;;6.37;86.31
48630;BME280;34426;52.180;4.462;2023-02-22T00:50:30;101618.06;;;6.41;86.33
48630;BME280;34426;52.180;4.462;2023-02-22T00:52:57;101617.22;;;6.34;86.57
48630;BME280;34426;52.180;4.462;2023-02-22T00:55:25;101620.44;;;6.31;87.16
48630;BME280;34426;52.180;4.462;2023-02-22T00:57:51;101626.44;;;6.28;87.49
48630;BME280;34426;52.180;4.462;2023-02-22T01:00:20;101627.06;;;6.30;87.19
48630;BME280;34426;52.180;4.462;2023-02-22T01:02:46;101622.16;;;6.32;87.05
48630;BME280;34426;52.180;4.462;2023-02-22T01:05:13;101630.50;;;6.25;86.69
48630;BME280;34426;52.180;4.462;2023-02-22T01:07:39;101629.66;;;6.25;87.76
48630;BME280;34426;52.180;4.462;2023-02-22T01:10:06;101622.84;;;6.21;87.83
48630;BME280;34426;52.180;4.462;2023-02-22T01:12:31;101624.75;;;6.27;87.39
48630;BME280;34426;52.180;4.462;2023-02-22T01:14:57;101630.94;;;6.29;87.33
48630;BME280;34426;52.180;4.462;2023-02-22T01:17:24;101628.19;;;6.22;87.24
48630;BME280;34426;52.180;4.462;2023-02-22T01:19:50;101630.06;;;6.28;87.96
48630;BME280;34426;52.180;4.462;2023-02-22T01:22:15;101633.94;;;6.21;87.94
48630;BME280;34426;52.180;4.462;2023-02-22T01:24:41;101617.94;;;6.16;86.96
48630;BME280;34426;52.180;4.462;2023-02-22T01:27:06;101619.00;;;6.15;87.93
48630;BME280;34426;52.180;4.462;2023-02-22T01:29:32;101612.25;;;6.05;87.65
48630;BME280;34426;52.180;4.462;2023-02-22T01:31:59;101618.16;;;6.15;88.81
48630;BME280;34426;52.180;4.462;2023-02-22T01:34:26;101617.28;;;6.21;87.88
48630;BME280;34426;52.180;4.462;2023-02-22T01:36:51;101604.88;;;6.23;87.67
48630;BME280;34426;52.180;4.462;2023-02-22T01:39:17;101603.19;;;6.22;87.48
48630;BME280;34426;52.180;4.462;2023-02-22T01:41:42;101599.53;;;6.22;86.99
48630;BME280;34426;52.180;4.462;2023-02-22T01:44:19;101603.91;;;6.05;86.85
48630;BME280;34426;52.180;4.462;2023-02-22T01:46:45;101604.13;;;6.03;88.00
48630;BME280;34426;52.180;4.462;2023-02-22T01:49:11;101598.81;;;6.02;86.90
48630;BME280;34426;52.180;4.462;2023-02-22T01:51:42;101593.88;;;6.04;87.49
48630;BME280;34426;52.180;4.462;2023-02-22T01:54:10;101588.09;;;6.05;87.00
48630;BME280;34426;52.180;4.462;2023-02-22T01:56:40;101584.88;;;6.08;87.29
48630;BME280;34426;52.180;4.462;2023-02-22T01:59:10;101584.91;;;6.02;86.78
48630;BME280;34426;52.180;4.462;2023-02-22T02:01:38;101583.25;;;5.94;87.37
48630;BME280;34426;52.180;4.462;2023-02-22T02:04:09;101581.13;;;5.89;86.85
48630;BME280;34426;52.180;4.462;2023-02-22T02:06:36;101581.97;;;5.90;87.01
48630;BME280;34426;52.180;4.462;2023-02-22T02:09:09;101575.34;;;5.84;87.13
48630;BME280;34426;52.180;4.462;2023-02-22T02:11:37;101571.72;;;5.84;86.15
48630;BME280;34426;52.180;4.462;2023-02-22T02:14:05;101564.88;;;5.86;86.99
48630;BME280;34426;52.180;4.462;2023-02-22T02:16:35;101564.88;;;5.80;86.76
48630;BME280;34426;52.180;4.462;2023-02-22T02:19:02;101560.19;;;5.80;87.23
48630;BME280;34426;52.180;4.462;2023-02-22T02:28:00;101558.06;;;5.76;86.86
48630;BME280;34426;52.180;4.462;2023-02-22T02:30:48;101559.34;;;5.73;86.94
48630;BME280;34426;52.180;4.462;2023-02-22T02:33:24;101557.88;;;5.64;87.51
48630;BME280;34426;52.180;4.462;2023-02-22T02:35:56;101554.31;;;5.57;87.99
48630;BME280;34426;52.180;4.462;2023-02-22T02:38:31;101550.03;;;5.61;87.97
48630;BME280;34426;52.180;4.462;2023-02-22T02:41:05;101546.63;;;5.52;87.55
48630;BME280;34426;52.180;4.462;2023-02-22T02:43:37;101544.72;;;5.46;88.32
48630;BME280;34426;52.180;4.462;2023-02-22T02:46:09;101541.94;;;5.46;88.29
48630;BME280;34426;52.180;4.462;2023-02-22T02:48:41;101541.53;;;5.49;88.11
48630;BME280;34426;52.180;4.462;2023-02-22T02:51:09;101532.13;;;5.44;87.97
48630;BME280;34426;52.180;4.462;2023-02-22T02:53:38;101536.63;;;5.45;88.32
48630;BME280;34426;52.180;4.462;2023-02-22T02:56:05;101528.50;;;5.50;88.33
48630;BME280;34426;52.180;4.462;2023-02-22T02:58:31;101528.72;;;5.42;88.02
48630;BME280;34426;52.180;4.462;2023-02-22T03:00:59;101517.22;;;5.31;88.46
48630;BME280;34426;52.180;4.462;2023-02-22T03:03:48;101511.25;;;5.34;87.75
48630;BME280;34426;52.180;4.462;2023-02-22T03:06:38;101511.47;;;5.26;88.11
48630;BME280;34426;52.180;4.462;2023-02-22T03:09:12;101512.59;;;5.19;87.44
48630;BME280;34426;52.180;4.462;2023-02-22T03:11:50;101500.22;;;5.15;89.04
48630;BME280;34426;52.180;4.462;2023-02-22T03:14:22;101494.06;;;5.06;88.74
48630;BME280;34426;52.180;4.462;2023-02-22T03:16:51;101495.53;;;5.15;89.72
48630;BME280;34426;52.180;4.462;2023-02-22T03:19:29;101487.84;;;5.11;89.07
48630;BME280;34426;52.180;4.462;2023-02-22T03:22:01;101491.69;;;5.16;89.73
48630;BME280;34426;52.180;4.462;2023-02-22T03:24:33;101484.88;;;5.12;90.32
48630;BME280;34426;52.180;4.462;2023-02-22T03:27:05;101472.94;;;5.05;89.68
48630;BME280;34426;52.180;4.462;2023-02-22T03:29:32;101469.31;;;5.05;89.19
48630;BME280;34426;52.180;4.462;2023-02-22T03:32:00;101465.69;;;5.04;89.96
48630;BME280;34426;52.180;4.462;2023-02-22T03:34:32;101458.44;;;5.03;90.55
48630;BME280;34426;52.180;4.462;2023-02-22T03:37:00;101454.41;;;4.99;89.19
48630;BME280;34426;52.180;4.462;2023-02-22T03:39:28;101458.88;;;5.00;90.29
48630;BME280;34426;52.180;4.462;2023-02-22T03:41:57;101455.47;;;4.85;90.00
48630;BME280;34426;52.180;4.462;2023-02-22T03:44:26;101449.28;;;4.89;89.50
48630;BME280;34426;52.180;4.462;2023-02-22T03:46:54;101451.00;;;4.90;89.79
48630;BME280;34426;52.180;4.462;2023-02-22T03:49:29;101448.22;;;4.90;89.96
48630;BME280;34426;52.180;4.462;2023-02-22T03:51:58;101447.81;;;4.87;90.14
48630;BME280;34426;52.180;4.462;2023-02-22T03:54:24;101445.25;;;4.92;90.45
48630;BME280;34426;52.180;4.462;2023-02-22T03:56:52;101443.97;;;4.94;90.18
48630;BME280;34426;52.180;4.462;2023-02-22T03:59:20;101443.97;;;4.94;90.08
48630;BME280;34426;52.180;4.462;2023-02-22T04:01:46;101435.44;;;4.96;90.48
48630;BME280;34426;52.180;4.462;2023-02-22T04:04:12;101432.84;;;5.01;91.14
48630;BME280;34426;52.180;4.462;2023-02-22T04:06:37;101428.38;;;5.07;91.06
48630;BME280;34426;52.180;4.462;2023-02-22T04:09:04;101425.59;;;5.00;90.20
48630;BME280;34426;52.180;4.462;2023-02-22T04:11:30;101411.31;;;5.03;90.57
48630;BME280;34426;52.180;4.462;2023-02-22T04:13:55;101421.75;;;5.01;90.75
48630;BME280;34426;52.180;4.462;2023-02-22T04:16:21;101416.88;;;4.96;90.88
48630;BME280;34426;52.180;4.462;2023-02-22T04:18:46;101404.28;;;5.00;91.06
48630;BME280;34426;52.180;4.462;2023-02-22T04:21:12;101403.00;;;5.03;91.24
48630;BME280;34426;52.180;4.462;2023-02-22T04:23:38;101402.56;;;5.06;91.20
48630;BME280;34426;52.180;4.462;2023-02-22T04:26:05;101397.03;;;5.06;90.62
48630;BME280;34426;52.180;4.462;2023-02-22T04:28:30;101401.28;;;5.09;90.61
48630;BME280;34426;52.180;4.462;2023-02-22T04:30:56;101399.13;;;5.11;90.68
48630;BME280;34426;52.180;4.462;2023-02-22T04:33:21;101402.59;;;4.99;90.38
48630;BME280;34426;52.180;4.462;2023-02-22T04:35:46;101392.78;;;4.97;91.13
48630;BME280;34426;52.180;4.462;2023-02-22T04:38:12;101389.38;;;4.95;90.26
48630;BME280;34426;52.180;4.462;2023-02-22T04:40:38;101396.66;;;4.83;90.23
48630;BME280;34426;52.180;4.462;2023-02-22T04:43:04;101398.78;;;4.81;90.67
48630;BME280;34426;52.180;4.462;2023-02-22T04:45:30;101390.47;;;4.81;91.05
48630;BME280;34426;52.180;4.462;2023-02-22T04:47:56;101378.50;;;4.87;91.67
48630;BME280;34426;52.180;4.462;2023-02-22T04:50:21;101384.69;;;4.89;91.81
48630;BME280;34426;52.180;4.462;2023-02-22T04:52:47;101385.34;;;4.91;91.77
48630;BME280;34426;52.180;4.462;2023-02-22T04:55:12;101385.53;;;4.89;91.38
48630;BME280;34426;52.180;4.462;2023-02-22T04:57:38;101382.34;;;4.86;90.90
48630;BME280;34426;52.180;4.462;2023-02-22T05:00:05;101385.09;;;4.99;90.76
48630;BME280;34426;52.180;4.462;2023-02-22T05:02:31;101385.53;;;4.96;90.82
48630;BME280;34426;52.180;4.462;2023-02-22T05:04:56;101386.38;;;4.96;90.92
48630;BME280;34426;52.180;4.462;2023-02-22T05:07:22;101382.13;;;4.94;91.67
48630;BME280;34426;52.180;4.462;2023-02-22T05:09:47;101381.28;;;4.93;91.50
48630;BME280;34426;52.180;4.462;2023-02-22T05:12:13;101378.72;;;4.92;91.74
48630;BME280;34426;52.180;4.462;2023-02-22T05:14:38;101374.88;;;4.93;91.38
48630;BME280;34426;52.180;4.462;2023-02-22T05:17:05;101369.34;;;4.93;91.51
48630;BME280;34426;52.180;4.462;2023-02-22T05:19:31;101371.25;;;4.92;91.25
48630;BME280;34426;52.180;4.462;2023-02-22T05:21:56;101358.69;;;4.90;92.00
48630;BME280;34426;52.180;4.462;2023-02-22T05:24:22;101371.47;;;4.91;92.41
48630;BME280;34426;52.180;4.462;2023-02-22T05:26:47;101366.78;;;4.85;92.20
48630;BME280;34426;52.180;4.462;2023-02-22T05:29:13;101359.94;;;4.94;92.62
48630;BME280;34426;52.180;4.462;2023-02-22T05:31:38;101352.47;;;4.94;92.10
48630;BME280;34426;52.180;4.462;2023-02-22T05:34:05;101356.53;;;4.92;91.58
48630;BME280;34426;52.180;4.462;2023-02-22T05:36:31;101351.44;;;4.82;91.70
48630;BME280;34426;52.180;4.462;2023-02-22T05:38:56;101354.00;;;4.84;92.75
48630;BME280;34426;52.180;4.462;2023-02-22T05:41:22;101348.66;;;4.89;92.26
48630;BME280;34426;52.180;4.462;2023-02-22T05:43:47;101344.81;;;4.90;92.34
48630;BME280;34426;52.180;4.462;2023-02-22T05:46:13;101344.22;;;4.81;92.70
48630;BME280;34426;52.180;4.462;2023-02-22T05:48:38;101340.78;;;4.86;92.05
48630;BME280;34426;52.180;4.462;2023-02-22T05:51:05;101349.72;;;4.88;92.18
48630;BME280;34426;52.180;4.462;2023-02-22T05:53:31;101342.91;;;4.84;92.06
48630;BME280;34426;52.180;4.462;2023-02-22T05:55:57;101343.13;;;4.89;92.24
48630;BME280;34426;52.180;4.462;2023-02-22T05:58:22;101337.56;;;4.89;92.11
48630;BME280;34426;52.180;4.462;2023-02-22T06:00:48;101341.22;;;4.83;93.21
48630;BME280;34426;52.180;4.462;2023-02-22T06:03:13;101344.44;;;4.80;92.21
48630;BME280;34426;52.180;4.462;2023-02-22T06:05:39;101340.78;;;4.86;93.04
48630;BME280;34426;52.180;4.462;2023-02-22T06:08:07;101337.81;;;4.81;93.33
48630;BME280;34426;52.180;4.462;2023-02-22T06:10:33;101331.41;;;4.87;93.49
48630;BME280;34426;52.180;4.462;2023-02-22T06:12:59;101330.78;;;4.85;93.49
48630;BME280;34426;52.180;4.462;2023-02-22T06:15:26;101325.00;;;4.86;93.26
48630;BME280;34426;52.180;4.462;2023-02-22T06:17:53;101320.28;;;4.93;93.36
48630;BME280;34426;52.180;4.462;2023-02-22T06:20:20;101308.78;;;4.96;93.70
48630;BME280;34426;52.180;4.462;2023-02-22T06:22:46;101317.31;;;4.95;94.16
48630;BME280;34426;52.180;4.462;2023-02-22T06:25:15;101306.84;;;4.97;93.86
48630;BME280;34426;52.180;4.462;2023-02-22T06:27:41;101294.69;;;4.98;93.86
48630;BME280;34426;52.180;4.462;2023-02-22T06:30:08;101304.94;;;4.91;93.65
48630;BME280;34426;52.180;4.462;2023-02-22T06:32:34;101297.28;;;4.93;93.72
48630;BME280;34426;52.180;4.462;2023-02-22T06:34:59;101304.53;;;4.87;93.99
48630;BME280;34426;52.180;4.462;2023-02-22T06:37:25;101307.28;;;4.94;94.08
48630;BME280;34426;52.180;4.462;2023-02-22T06:39:50;101320.06;;;4.95;93.78
48630;BME280;34426;52.180;4.462;2023-02-22T06:42:17;101317.72;;;4.98;93.69
48630;BME280;34426;52.180;4.462;2023-02-22T06:44:43;101327.06;;;5.04;93.63
48630;BME280;34426;52.180;4.462;2023-02-22T06:47:08;101314.50;;;5.01;93.47
48630;BME280;34426;52.180;4.462;2023-02-22T06:49:34;101322.59;;;5.03;94.45
48630;BME280;34426;52.180;4.462;2023-02-22T06:51:59;101326.44;;;5.02;93.80
48630;BME280;34426;52.180;4.462;2023-02-22T06:54:25;101314.31;;;4.96;93.71
48630;BME280;34426;52.180;4.462;2023-02-22T06:56:50;101325.56;;;5.08;94.65
48630;BME280;34426;52.180;4.462;2023-02-22T06:59:17;101324.06;;;5.12;94.38
48630;BME280;34426;52.180;4.462;2023-02-22T07:01:43;101324.06;;;5.12;94.52
48630;BME280;34426;52.180;4.462;2023-02-22T07:04:08;101323.63;;;5.15;94.09
48630;BME280;34426;52.180;4.462;2023-02-22T07:06:34;101323.19;;;5.18;93.72
48630;BME280;34426;52.180;4.462;2023-02-22T07:08:59;101320.41;;;5.18;93.68
48630;BME280;34426;52.180;4.462;2023-02-22T07:11:25;101306.53;;;5.18;94.04
48630;BME280;34426;52.180;4.462;2023-02-22T07:13:51;101309.13;;;5.13;93.48
48630;BME280;34426;52.180;4.462;2023-02-22T07:16:18;101317.16;;;5.21;93.65
48630;BME280;34426;52.180;4.462;2023-02-22T07:18:43;101319.69;;;5.29;93.70
48630;BME280;34426;52.180;4.462;2023-02-22T07:21:09;101307.78;;;5.22;93.35
48630;BME280;34426;52.180;4.462;2023-02-22T07:23:35;101314.56;;;5.26;93.61
48630;BME280;34426;52.180;4.462;2023-02-22T07:26:01;101318.84;;;5.22;93.55
48630;BME280;34426;52.180;4.462;2023-02-22T07:28:26;101324.38;;;5.29;93.51
48630;BME280;34426;52.180;4.462;2023-02-22T07:30:52;101332.91;;;5.27;93.62
48630;BME280;34426;52.180;4.462;2023-02-22T07:33:19;101333.78;;;5.21;93.58
48630;BME280;34426;52.180;4.462;2023-02-22T07:35:46;101326.09;;;5.23;92.95
48630;BME280;34426;52.180;4.462;2023-02-22T07:38:13;101331.84;;;5.28;93.17
48630;BME280;34426;52.180;4.462;2023-02-22T07:40:38;101338.47;;;5.27;93.25
48630;BME280;34426;52.180;4.462;2023-02-22T07:43:14;101324.78;;;5.32;93.48
48630;BME280;34426;52.180;4.462;2023-02-22T07:45:40;101323.50;;;5.35;93.39
48630;BME280;34426;52.180;4.462;2023-02-22T07:48:05;101324.97;;;5.38;93.35
48630;BME280;34426;52.180;4.462;2023-02-22T07:50:33;101320.94;;;5.33;93.62
48630;BME280;34426;52.180;4.462;2023-02-22T07:53:02;101327.34;;;5.34;92.70
48630;BME280;34426;52.180;4.462;2023-02-22T07:55:29;101333.47;;;5.43;92.96
48630;BME280;34426;52.180;4.462;2023-02-22T07:57:56;101338.59;;;5.46;93.45
48630;BME280;34426;52.180;4.462;2023-02-22T08:00:24;101328.81;;;5.37;92.91
48630;BME280;34426;52.180;4.462;2023-02-22T08:02:50;101329.63;;;5.44;92.73
48630;BME280;34426;52.180;4.462;2023-02-22T08:05:16;101322.38;;;5.43;92.61
48630;BME280;34426;52.180;4.462;2023-02-22T08:07:43;101311.47;;;5.48;92.49
48630;BME280;34426;52.180;4.462;2023-02-22T08:10:10;101310.66;;;5.41;92.54
48630;BME280;34426;52.180;4.462;2023-02-22T08:12:36;101314.69;;;5.45;92.18
48630;BME280;34426;52.180;4.462;2023-02-22T08:15:03;101308.06;;;5.46;92.45
48630;BME280;34426;52.180;4.462;2023-02-22T08:17:28;101319.16;;;5.46;92.66
48630;BME280;34426;52.180;4.462;2023-02-22T08:19:54;101321.44;;;5.55;93.00
48630;BME280;34426;52.180;4.462;2023-02-22T08:22:19;101315.91;;;5.55;92.86
48630;BME280;34426;52.180;4.462;2023-02-22T08:24:46;101320.59;;;5.55;92.14
48630;BME280;34426;52.180;4.462;2023-02-22T08:27:12;101305.09;;;5.41;91.79
48630;BME280;34426;52.180;4.462;2023-02-22T08:29:37;101306.38;;;5.45;92.48
48630;BME280;34426;52.180;4.462;2023-02-22T08:32:03;101306.09;;;5.53;92.65
48630;BME280;34426;52.180;4.462;2023-02-22T08:34:28;101295.97;;;5.65;92.40
48630;BME280;34426;52.180;4.462;2023-02-22T08:36:54;101300.28;;;5.61;92.43
48630;BME280;34426;52.180;4.462;2023-02-22T08:39:20;101292.59;;;5.63;92.67
48630;BME280;34426;52.180;4.462;2023-02-22T08:41:47;101295.28;;;5.69;92.24
48630;BME280;34426;52.180;4.462;2023-02-22T08:44:13;101293.41;;;5.63;91.84
48630;BME280;34426;52.180;4.462;2023-02-22T08:46:38;101283.50;;;5.74;92.72
48630;BME280;34426;52.180;4.462;2023-02-22T08:49:04;101284.00;;;5.64;91.51
48630;BME280;34426;52.180;4.462;2023-02-22T08:51:33;101272.88;;;5.71;91.74
48630;BME280;34426;52.180;4.462;2023-02-22T08:53:59;101272.00;;;5.71;91.71
48630;BME280;34426;52.180;4.462;2023-02-22T08:56:24;101269.88;;;5.73;91.30
48630;BME280;34426;52.180;4.462;2023-02-22T08:58:51;101273.66;;;5.78;90.98
48630;BME280;34426;52.180;4.462;2023-02-22T09:01:16;101277.69;;;5.82;91.19
48630;BME280;34426;52.180;4.462;2023-02-22T09:03:42;101279.13;;;5.91;91.57
48630;BME280;34426;52.180;4.462;2023-02-22T09:06:07;101270.97;;;5.96;91.58
48630;BME280;34426;52.180;4.462;2023-02-22T09:08:33;101269.84;;;6.04;90.77
48630;BME280;34426;52.180;4.462;2023-02-22T09:10:58;101266.97;;;6.11;90.71
48630;BME280;34426;52.180;4.462;2023-02-22T09:13:23;101263.91;;;6.19;90.73
48630;BME280;34426;52.180;4.462;2023-02-22T09:15:50;101263.63;;;6.27;91.03
48630;BME280;34426;52.180;4.462;2023-02-22T09:18:16;101264.53;;;6.21;89.60
48630;BME280;34426;52.180;4.462;2023-02-22T09:20:41;101259.94;;;6.33;89.58
48630;BME280;34426;52.180;4.462;2023-02-22T09:23:07;101243.25;;;6.33;89.64
48630;BME280;34426;52.180;4.462;2023-02-22T09:25:32;101251.59;;;6.33;89.74
48630;BME280;34426;52.180;4.462;2023-02-22T09:27:57;101237.31;;;6.48;89.74
48630;BME280;34426;52.180;4.462;2023-02-22T09:30:25;101243.31;;;6.63;89.06
48630;BME280;34426;52.180;4.462;2023-02-22T09:32:54;101236.69;;;6.64;88.53
48630;BME280;34426;52.180;4.462;2023-02-22T09:35:22;101229.44;;;6.63;88.01
48630;BME280;34426;52.180;4.462;2023-02-22T09:37:47;101248.41;;;6.66;88.38
48630;BME280;34426;52.180;4.462;2023-02-22T09:40:15;101275.66;;;6.76;88.75
48630;BME280;34426;52.180;4.462;2023-02-22T09:42:45;101290.88;;;6.73;87.96
48630;BME280;34426;52.180;4.462;2023-02-22T09:45:27;101296.06;;;6.88;88.29
48630;BME280;34426;52.180;4.462;2023-02-22T09:48:15;101308.41;;;6.92;86.70
48630;BME280;34426;52.180;4.462;2023-02-22T09:53:45;101293.66;;;6.91;86.90
48630;BME280;34426;52.180;4.462;2023-02-22T09:56:18;101282.00;;;6.83;87.37
48630;BME280;34426;52.180;4.462;2023-02-22T09:58:52;101266.41;;;6.82;87.75
48630;BME280;34426;52.180;4.462;2023-02-22T10:01:31;101291.59;;;6.87;87.28
48630;BME280;34426;52.180;4.462;2023-02-22T10:04:14;101274.31;;;6.96;86.38
48630;BME280;34426;52.180;4.462;2023-02-22T10:06:55;101260.78;;;7.00;87.21
48630;BME280;34426;52.180;4.462;2023-02-22T10:09:33;101266.50;;;7.05;86.47
48630;BME280;34426;52.180;4.462;2023-02-22T10:12:10;101262.41;;;7.08;87.16
48630;BME280;34426;52.180;4.462;2023-02-22T10:15:02;101256.38;;;7.11;86.29
48630;BME280;34426;52.180;4.462;2023-02-22T10:20:36;101249.50;;;7.13;85.41
48630;BME280;34426;52.180;4.462;2023-02-22T10:23:14;101238.06;;;7.03;86.40
48630;BME280;34426;52.180;4.462;2023-02-22T10:25:50;101262.66;;;7.06;86.42
48630;BME280;34426;52.180;4.462;2023-02-22T10:28:30;101292.59;;;7.22;86.00
48630;BME280;34426;52.180;4.462;2023-02-22T10:31:19;101288.25;;;7.26;85.00
48630;BME280;34426;52.180;4.462;2023-02-22T10:34:04;101283.34;;;7.10;85.08
48630;BME280;34426;52.180;4.462;2023-02-22T10:36:53;101290.00;;;7.09;85.50
48630;BME280;34426;52.180;4.462;2023-02-22T10:39:34;101283.50;;;7.15;85.53
48630;BME280;34426;52.180;4.462;2023-02-22T10:42:15;101283.31;;;7.28;86.00
48630;BME280;34426;52.180;4.462;2023-02-22T10:44:47;101275.19;;;7.27;85.11
48630;BME280;34426;52.180;4.462;2023-02-22T10:47:16;101278.16;;;7.44;84.49
48630;BME280;34426;52.180;4.462;2023-02-22T10:49:45;101276.25;;;7.56;84.57
48630;BME280;34426;52.180;4.462;2023-02-22T10:52:20;101273.94;;;7.53;84.44
48630;BME280;34426;52.180;4.462;2023-02-22T10:54:47;101263.69;;;7.65;84.31
48630;BME280;34426;52.180;4.462;2023-02-22T10:57:19;101261.53;;;7.67;84.26
48630;BME280;34426;52.180;4.462;2023-02-22T10:59:45;101256.56;;;7.69;83.63
48630;BME280;34426;52.180;4.462;2023-02-22T11:02:17;101261.03;;;7.82;83.36
48630;BME280;34426;52.180;4.462;2023-02-22T11:04:46;101255.13;;;7.90;82.57
48630;BME280;34426;52.180;4.462;2023-02-22T11:07:22;101254.41;;;7.94;82.44
48630;BME280;34426;52.180;4.462;2023-02-22T11:09:50;101252.47;;;7.95;82.22
48630;BME280;34426;52.180;4.462;2023-02-22T11:12:18;101251.38;;;8.08;81.78
48630;BME280;34426;52.180;4.462;2023-02-22T11:14:44;101249.69;;;8.07;81.88
48630;BME280;34426;52.180;4.462;2023-02-22T11:17:15;101234.91;;;8.18;81.72
48630;BME280;34426;52.180;4.462;2023-02-22T11:19:45;101221.91;;;8.23;81.98
48630;BME280;34426;52.180;4.462;2023-02-22T11:22:12;101219.25;;;8.28;82.10
48630;BME280;34426;52.180;4.462;2023-02-22T11:24:46;101225.47;;;8.42;80.72
48630;BME280;34426;52.180;4.462;2023-02-22T11:27:23;101227.75;;;8.45;80.43
48630;BME280;34426;52.180;4.462;2023-02-22T11:29:49;101227.16;;;8.43;80.43
48630;BME280;34426;52.180;4.462;2023-02-22T11:32:18;101225.44;;;8.54;80.81
48630;BME280;34426;52.180;4.462;2023-02-22T11:34:44;101229.06;;;8.54;80.07
48630;BME280;34426;52.180;4.462;2023-02-22T11:37:26;101228.28;;;8.71;78.53
48630;BME280;34426;52.180;4.462;2023-02-22T11:40:03;101222.56;;;8.77;78.47
48630;BME280;34426;52.180;4.462;2023-02-22T11:42:29;101225.63;;;8.76;78.55
48630;BME280;34426;52.180;4.462;2023-02-22T11:45:09;101210.56;;;8.77;79.17
48630;BME280;34426;52.180;4.462;2023-02-22T11:47:46;101197.81;;;8.81;79.39
48630;BME280;34426;52.180;4.462;2023-02-22T11:50:20;101201.81;;;8.85;79.82
48630;BME280;34426;52.180;4.462;2023-02-22T11:52:54;101208.22;;;8.97;78.97
48630;BME280;34426;52.180;4.462;2023-02-22T11:55:27;101194.00;;;8.98;78.58
48630;BME280;34426;52.180;4.462;2023-02-22T11:58:01;101197.66;;;8.99;76.70
48630;BME280;34426;52.180;4.462;2023-02-22T12:00:39;101200.88;;;9.08;76.79
48630;BME280;34426;52.180;4.462;2023-02-22T12:03:22;101200.09;;;9.12;76.82
48630;BME280;34426;52.180;4.462;2023-02-22T12:06:03;101195.81;;;9.21;77.18
48630;BME280;34426;52.180;4.462;2023-02-22T12:08:40;101193.22;;;9.31;76.47
48630;BME280;34426;52.180;4.462;2023-02-22T12:11:13;101201.59;;;9.31;76.30
48630;BME280;34426;52.180;4.462;2023-02-22T12:13:51;101192.31;;;9.43;76.37
48630;BME280;34426;52.180;4.462;2023-02-22T12:16:25;101191.38;;;9.37;75.58
48630;BME280;34426;52.180;4.462;2023-02-22T12:19:04;101188.69;;;9.42;76.04
48630;BME280;34426;52.180;4.462;2023-02-22T12:21:35;101188.56;;;9.54;75.11
48630;BME280;34426;52.180;4.462;2023-02-22T12:24:06;101190.94;;;9.62;74.52
48630;BME280;34426;52.180;4.462;2023-02-22T12:26:36;101188.25;;;9.67;74.16
48630;BME280;34426;52.180;4.462;2023-02-22T12:29:11;101183.19;;;9.81;74.85
48630;BME280;34426;52.180;4.462;2023-02-22T12:31:41;101189.94;;;9.85;74.59
48630;BME280;34426;52.180;4.462;2023-02-22T12:34:14;101195.34;;;9.58;73.71
48630;BME280;34426;52.180;4.462;2023-02-22T12:36:46;101188.25;;;9.67;74.57
48630;BME280;34426;52.180;4.462;2023-02-22T12:39:37;101184.44;;;9.56;75.43
48630;BME280;34426;52.180;4.462;2023-02-22T12:42:12;101186.03;;;9.69;75.14
48630;BME280;34426;52.180;4.462;2023-02-22T12:44:39;101186.91;;;9.70;74.62
48630;BME280;34426;52.180;4.462;2023-02-22T12:47:07;101193.16;;;9.60;74.02
48630;BME280;34426;52.180;4.462;2023-02-22T12:49:40;101192.13;;;9.66;74.00
48630;BME280;34426;52.180;4.462;2023-02-22T12:52:12;101200.28;;;9.67;74.04
48630;BME280;34426;52.180;4.462;2023-02-22T12:54:43;101196.03;;;9.65;74.25
48630;BME280;34426;52.180;4.462;2023-02-22T12:57:18;101194.34;;;9.64;74.25
48630;BME280;34426;52.180;4.462;2023-02-22T12:59:46;101195.19;;;9.64;74.62
48630;BME280;34426;52.180;4.462;2023-02-22T13:02:17;101199.75;;;9.71;74.30
48630;BME280;34426;52.180;4.462;2023-02-22T13:04:44;101187.75;;;9.70;74.90
48630;BME280;34426;52.180;4.462;2023-02-22T13:07:20;101199.50;;;9.72;74.44
48630;BME280;34426;52.180;4.462;2023-02-22T13:10:09;101188.41;;;9.77;74.14
48630;BME280;34426;52.180;4.462;2023-02-22T13:12:47;101185.53;;;9.89;73.83
48630;BME280;34426;52.180;4.462;2023-02-22T13:15:20;101184.19;;;9.91;73.40
48630;BME280;34426;52.180;4.462;2023-02-22T13:17:53;101175.84;;;9.96;73.98
48630;BME280;34426;52.180;4.462;2023-02-22T13:20:21;101180.94;;;9.99;72.95
48630;BME280;34426;52.180;4.462;2023-02-22T13:22:51;101179.78;;;9.95;74.14